Norwegian Sun — C6RN3 — position and weather

sailwx.info

Track history (hours):
 
Tides and Currents Weather Stations Pressure Air Temp Water Temp Dewpoint Dewpoint Depression Visibility Wind Speed Wind Dir Waves Ship Positions

Norwegian Sun

Operator: Norwegian Cruise Line

Last reported at 2014-Sep-02 16:20 UTC. Time now 2014-Sep-02 21:14 UTC.
Position N 51°14' W 128°37'.

Type: Ship. MMSI: 311109000.

Date/timePositionNaut miles runAvg speedWind from/ knotsBaromVisibWave heightAir tempDewpointWater temp
2014-Sep-02 16:20N 51°14' W 128°37'1316.5
2014-Sep-02 15:33N 51°08' W 128°19'1615.5
2014-Sep-02 14:33N 51°02' W 127°57'1312.7
2014-Sep-02 13:33N 50°55' W 127°40'1313.3
2014-Sep-02 12:33N 50°48' W 127°21'1413.5
2014-Sep-02 11:33N 50°43' W 127°01'11015.1
2014-Sep-02 04:18N 49°41' W 124°40'827.1
2014-Sep-02 04:00N 49°36' W 124°30'1418.2 340 / 31016.710.8 18.011.218.0
2014-Sep-02 03:12N 49°30' W 124°10'1320.8
2014-Sep-02 02:33N 49°24' W 123°51'2020.0
2014-Sep-02 01:34N 49°19' W 123°22'1010.1
2014-Sep-02 00:33N 49°17' W 123°07'0 0.0
2014-Sep-01 23:31N 49°17' W 123°07'0 0.0
2014-Sep-01 22:32N 49°17' W 123°07'0 0.0
2014-Sep-01 21:34N 49°17' W 123°07'0 0.0
2014-Sep-01 20:33N 49°17' W 123°07'0 0.0
2014-Sep-01 19:32N 49°17' W 123°07'0 0.0
2014-Sep-01 18:31N 49°17' W 123°07'0 0.0
2014-Sep-01 17:32N 49°17' W 123°07'0 0.0
2014-Sep-01 16:33N 49°17' W 123°07'0 0.0
2014-Sep-01 15:32N 49°17' W 123°07'0 0.0
2014-Sep-01 14:31N 49°17' W 123°07'1 1.2
2014-Sep-01 13:34N 49°18' W 123°07'1211.8
2014-Sep-01 12:34N 49°19' W 123°25'1212.0
2014-Sep-01 11:33N 49°21' W 123°43'1211.8
2014-Sep-01 10:33N 49°23' W 124°01'1211.8
2014-Sep-01 09:33N 49°25' W 124°19'1311.4
2014-Sep-01 08:23N 49°34' W 124°35'1011.8
2014-Sep-01 07:33N 49°41' W 124°45'1212.0
2014-Sep-01 06:31N 49°50' W 124°58'7913.0
2014-Sep-01 00:23N 50°34' W 126°41'1316.1
2014-Aug-31 23:33N 50°42' W 126°58'1716.7
2014-Aug-31 22:33N 50°49' W 127°22'1716.8
2014-Aug-31 21:33N 50°57' W 127°45'46712.1
2014-Aug-30 07:00N 57°36' W 134°42'1818.3 310 / 71002.410.8 13.0 9.410.0
2014-Aug-30 06:00N 57°54' W 134°48'1818.3 030 / 91002.410.8 13.0 9.413.0
2014-Aug-30 05:00N 58°12' W 134°54'12 0.3 040 / 91002.210.8 13.0 9.413.0
2014-Aug-28 07:00N 58°00' W 134°48'17 3.6 170 / 71019.010.8 13.011.213.0
2014-Aug-28 02:11N 58°09' W 135°16'5 7.8
2014-Aug-28 01:31N 58°09' W 135°26'10 1.0
2014-Aug-27 14:33N 58°16' W 135°40'1613.5
2014-Aug-27 13:22N 58°15' W 136°11'  
2014-Aug-24 07:00N 58°36' W 138°30'2613.0 310 / 61022.410.8 14.010.515.0
2014-Aug-24 05:00N 58°18' W 137°54'2311.5 280 / 191023.010.8 14.010.515.0
2014-Aug-24 03:00N 58°12' W 137°12'34 9.8 300 / 201022.910.8 15.0 9.615.0
2014-Aug-23 23:33N 58°19' W 136°09'10 9.8
2014-Aug-23 22:33N 58°27' W 136°01'1615.9
2014-Aug-23 21:33N 58°42' W 136°14'  
Track history (hours):
 
Tides and Currents Weather Stations Pressure Air Temp Water Temp Dewpoint Dewpoint Depression Visibility Wind Speed Wind Dir Waves Ship Positions

Norwegian Sun

Operator: Norwegian Cruise Line

Last reported at 2014-Sep-02 16:20 UTC. Time now 2014-Sep-02 21:14 UTC.
Position N 51°14' W 128°37'.

Type: Ship. MMSI: 311109000.

Date/timePositionNaut miles runAvg speedWind from/ knotsBaromVisibWave heightAir tempDewpointWater temp
2014-Sep-02 16:20N 51°14' W 128°37'1316.5
2014-Sep-02 15:33N 51°08' W 128°19'1615.5
2014-Sep-02 14:33N 51°02' W 127°57'1312.7
2014-Sep-02 13:33N 50°55' W 127°40'1313.3
2014-Sep-02 12:33N 50°48' W 127°21'1413.5
2014-Sep-02 11:33N 50°43' W 127°01'11015.1
2014-Sep-02 04:18N 49°41' W 124°40'827.1
2014-Sep-02 04:00N 49°36' W 124°30'1418.2 340 / 31016.710.8 18.011.218.0
2014-Sep-02 03:12N 49°30' W 124°10'1320.8
2014-Sep-02 02:33N 49°24' W 123°51'2020.0
2014-Sep-02 01:34N 49°19' W 123°22'1010.1
2014-Sep-02 00:33N 49°17' W 123°07'0 0.0
2014-Sep-01 23:31N 49°17' W 123°07'0 0.0
2014-Sep-01 22:32N 49°17' W 123°07'0 0.0
2014-Sep-01 21:34N 49°17' W 123°07'0 0.0
2014-Sep-01 20:33N 49°17' W 123°07'0 0.0
2014-Sep-01 19:32N 49°17' W 123°07'0 0.0
2014-Sep-01 18:31N 49°17' W 123°07'0 0.0
2014-Sep-01 17:32N 49°17' W 123°07'0 0.0
2014-Sep-01 16:33N 49°17' W 123°07'0 0.0
2014-Sep-01 15:32N 49°17' W 123°07'0 0.0
2014-Sep-01 14:31N 49°17' W 123°07'1 1.2
2014-Sep-01 13:34N 49°18' W 123°07'1211.8
2014-Sep-01 12:34N 49°19' W 123°25'1212.0
2014-Sep-01 11:33N 49°21' W 123°43'1211.8
2014-Sep-01 10:33N 49°23' W 124°01'1211.8
2014-Sep-01 09:33N 49°25' W 124°19'1311.4
2014-Sep-01 08:23N 49°34' W 124°35'1011.8
2014-Sep-01 07:33N 49°41' W 124°45'1212.0
2014-Sep-01 06:31N 49°50' W 124°58'7913.0
2014-Sep-01 00:23N 50°34' W 126°41'1316.1
2014-Aug-31 23:33N 50°42' W 126°58'1716.7
2014-Aug-31 22:33N 50°49' W 127°22'1716.8
2014-Aug-31 21:33N 50°57' W 127°45'46712.1
2014-Aug-30 07:00N 57°36' W 134°42'1818.3 310 / 71002.410.8 13.0 9.410.0
2014-Aug-30 06:00N 57°54' W 134°48'1818.3 030 / 91002.410.8 13.0 9.413.0
2014-Aug-30 05:00N 58°12' W 134°54'12 0.3 040 / 91002.210.8 13.0 9.413.0
2014-Aug-28 07:00N 58°00' W 134°48'17 3.6 170 / 71019.010.8 13.011.213.0
2014-Aug-28 02:11N 58°09' W 135°16'5 7.8
2014-Aug-28 01:31N 58°09' W 135°26'10 1.0
2014-Aug-27 14:33N 58°16' W 135°40'1613.5
2014-Aug-27 13:22N 58°15' W 136°11'  
2014-Aug-24 07:00N 58°36' W 138°30'2613.0 310 / 61022.410.8 14.010.515.0
2014-Aug-24 05:00N 58°18' W 137°54'2311.5 280 / 191023.010.8 14.010.515.0
2014-Aug-24 03:00N 58°12' W 137°12'34 9.8 300 / 201022.910.8 15.0 9.615.0
2014-Aug-23 23:33N 58°19' W 136°09'10 9.8
2014-Aug-23 22:33N 58°27' W 136°01'1615.9
2014-Aug-23 21:33N 58°42' W 136°14'  

Dump ship's entire track history